Time;durP1;ratioP1;P1;durP2;ratioP2;P2;SDS_P1;SDS_P2;PMS_P1;PMS_P2;Temp;Humidity;BMP_temperature;BMP_pressure;BME280_temperature;BME280_humidity;BME280_pressure;Samples;Min_cycle;Max_cycle;Signal;HPM_P1;HPM_P2
2022/03/11 00:00:32;;;;;;;3.42;1.10;;;23.70;52.10;;;;;;4972629;28;20199;-61
2022/03/11 00:03:03;;;;;;;1.30;1.20;;;23.70;52.10;;;;;;4972941;28;20206;-61
2022/03/11 00:05:33;;;;;;;1.67;1.10;;;23.70;52.10;;;;;;4972575;28;20656;-61
2022/03/11 00:18:45;;;;;;;0.95;0.82;;;24.00;52.30;;;;;;5481214;23;20276;-54
2022/03/11 00:21:16;;;;;;;1.20;1.10;;;24.00;52.30;;;;;;4990364;28;20227;-54
2022/03/11 00:23:47;;;;;;;0.95;0.90;;;24.00;52.30;;;;;;4990598;28;20268;-55
2022/03/11 00:26:17;;;;;;;1.48;1.15;;;24.10;52.30;;;;;;4991527;28;20252;-56
2022/03/11 00:28:48;;;;;;;1.23;1.13;;;24.10;52.20;;;;;;4990705;28;20253;-56
2022/03/11 00:31:18;;;;;;;2.47;1.10;;;24.10;52.10;;;;;;4990847;28;20544;-54
2022/03/11 00:33:51;;;;;;;1.63;0.93;;;24.20;52.20;;;;;;4991466;28;20221;-55
2022/03/11 00:36:22;;;;;;;2.08;1.20;;;24.20;52.10;;;;;;4991504;28;20228;-58
2022/03/11 00:38:53;;;;;;;2.22;1.10;;;24.20;52.00;;;;;;4991442;28;20196;-55
2022/03/11 00:41:23;;;;;;;1.27;1.17;;;24.20;52.00;;;;;;4991470;28;20256;-55
2022/03/11 00:43:55;;;;;;;1.80;1.10;;;24.30;52.00;;;;;;4991205;28;20221;-55
2022/03/11 00:46:26;;;;;;;1.40;1.13;;;24.30;52.00;;;;;;4991098;28;20599;-57
2022/03/11 00:48:58;;;;;;;2.03;1.23;;;24.30;52.00;;;;;;4991651;28;20194;-55
2022/03/11 00:51:29;;;;;;;1.10;1.00;;;24.40;52.00;;;;;;4990923;28;20615;-58
2022/03/11 00:53:59;;;;;;;1.25;0.95;;;24.40;51.90;;;;;;4990501;28;20229;-58
2022/03/11 00:56:30;;;;;;;1.85;1.15;;;24.40;52.00;;;;;;4990570;28;20197;-56
2022/03/11 00:59:01;;;;;;;1.67;1.00;;;24.40;51.90;;;;;;4990830;28;20193;-56
2022/03/11 01:01:31;;;;;;;1.25;0.90;;;24.50;51.90;;;;;;4990088;28;20198;-55
2022/03/11 01:04:04;;;;;;;2.20;1.17;;;24.50;51.80;;;;;;4990975;28;20289;-56
2022/03/11 01:06:35;;;;;;;1.27;1.00;;;24.50;51.70;;;;;;4991534;28;20194;-55
2022/03/11 01:09:05;;;;;;;0.93;0.70;;;24.60;51.50;;;;;;5014335;23;20225;-47
2022/03/11 01:11:36;;;;;;;1.38;0.90;;;24.70;51.50;;;;;;5010848;28;20263;-48
2022/03/11 01:14:07;;;;;;;1.10;0.90;;;24.70;51.40;;;;;;5010483;28;20251;-49
2022/03/11 01:16:38;;;;;;;2.05;1.20;;;24.70;51.30;;;;;;5010206;28;20189;-48
2022/03/11 01:19:10;;;;;;;1.88;1.20;;;24.70;51.20;;;;;;5009981;28;20197;-48
2022/03/11 01:21:41;;;;;;;1.88;0.90;;;24.70;51.00;;;;;;5010248;28;20239;-48
2022/03/11 01:24:11;;;;;;;1.10;1.00;;;24.80;51.00;;;;;;5010240;28;20220;-47
2022/03/11 01:26:42;;;;;;;1.92;0.90;;;24.80;51.00;;;;;;5009561;28;20193;-49
2022/03/11 01:29:13;;;;;;;1.17;1.00;;;24.90;51.00;;;;;;5010493;28;20273;-51
2022/03/11 01:31:43;;;;;;;1.27;0.93;;;24.90;51.40;;;;;;5009485;28;20189;-48
2022/03/11 01:34:16;;;;;;;1.42;0.95;;;24.90;50.80;;;;;;5008773;28;20213;-48
2022/03/11 01:36:46;;;;;;;1.00;0.90;;;24.90;50.70;;;;;;5009500;28;20204;-48
2022/03/11 01:39:17;;;;;;;2.47;0.93;;;25.00;50.70;;;;;;5009319;28;20266;-47
2022/03/11 01:41:48;;;;;;;1.55;1.00;;;25.00;50.70;;;;;;5009070;28;20251;-47
2022/03/11 01:44:18;;;;;;;0.95;0.90;;;25.00;50.50;;;;;;5009834;28;20290;-48
2022/03/11 01:46:49;;;;;;;1.88;0.90;;;25.00;50.50;;;;;;5009382;28;20205;-47
2022/03/11 01:49:21;;;;;;;2.97;0.80;;;25.00;50.50;;;;;;5009993;28;20197;-48
2022/03/11 01:51:52;;;;;;;1.10;0.80;;;25.10;50.50;;;;;;5009531;28;20224;-48
2022/03/11 01:54:23;;;;;;;1.02;0.90;;;25.10;50.40;;;;;;5009687;28;20228;-49
2022/03/11 01:56:55;;;;;;;1.02;0.93;;;25.10;50.30;;;;;;5008893;28;20653;-51
2022/03/11 01:59:26;;;;;;;1.05;0.95;;;25.10;50.30;;;;;;5009214;28;20197;-48
2022/03/11 02:01:56;;;;;;;1.48;1.05;;;25.20;50.30;;;;;;5009665;28;20216;-46
2022/03/11 02:04:29;;;;;;;1.98;0.88;;;25.20;50.30;;;;;;5009171;28;20294;-46
2022/03/11 02:07:01;;;;;;;1.55;0.82;;;25.20;50.20;;;;;;5008312;28;20710;-47
2022/03/11 02:09:32;;;;;;;1.55;0.85;;;25.30;50.30;;;;;;5009892;28;20572;-47
2022/03/11 02:12:03;;;;;;;1.10;0.88;;;25.30;50.30;;;;;;5009304;28;20205;-49
2022/03/11 02:14:33;;;;;;;1.98;0.93;;;25.30;50.20;;;;;;5008433;28;20208;-48
2022/03/11 02:17:04;;;;;;;0.95;0.90;;;25.30;50.20;;;;;;5008985;28;20220;-47
2022/03/11 02:19:37;;;;;;;0.80;0.80;;;25.30;50.20;;;;;;5009576;28;20254;-48
2022/03/11 02:22:08;;;;;;;1.38;0.93;;;25.30;50.30;;;;;;5008557;28;20794;-49
2022/03/11 02:24:41;;;;;;;2.15;1.17;;;25.40;50.40;;;;;;5008891;28;20232;-51
2022/03/11 02:27:11;;;;;;;1.13;0.82;;;25.40;50.50;;;;;;5009134;28;20204;-47
2022/03/11 02:29:42;;;;;;;1.70;1.02;;;25.40;50.50;;;;;;5009134;28;20185;-47
2022/03/11 02:32:13;;;;;;;1.35;0.90;;;25.40;50.40;;;;;;5009104;28;20719;-47
2022/03/11 02:34:43;;;;;;;2.00;1.23;;;25.40;50.50;;;;;;5009238;28;20212;-48
2022/03/11 02:37:14;;;;;;;1.95;1.05;;;25.50;50.60;;;;;;5008383;28;20193;-46
2022/03/11 02:39:47;;;;;;;1.23;0.90;;;25.50;50.50;;;;;;5008784;28;20256;-47
2022/03/11 02:42:17;;;;;;;1.13;0.88;;;25.50;50.60;;;;;;5008865;28;20254;-48
2022/03/11 02:44:48;;;;;;;2.90;0.88;;;25.50;50.50;;;;;;5008484;28;20762;-52
2022/03/11 02:47:19;;;;;;;2.97;0.98;;;25.50;50.20;;;;;;5008822;28;20209;-48
2022/03/11 02:49:49;;;;;;;1.52;0.88;;;25.50;49.70;;;;;;5008418;28;20327;-52
2022/03/11 02:52:20;;;;;;;1.20;0.98;;;25.50;49.50;;;;;;5008773;28;20201;-50
2022/03/11 02:54:52;;;;;;;2.83;1.08;;;25.50;49.10;;;;;;5008838;28;20287;-53
2022/03/11 02:57:23;;;;;;;1.83;0.90;;;25.60;49.30;;;;;;5008520;28;20189;-53
2022/03/11 02:59:53;;;;;;;4.68;0.90;;;25.60;48.40;;;;;;5008537;28;20251;-53
2022/03/11 03:02:24;;;;;;;5.85;1.48;;;25.60;47.90;;;;;;5008813;28;20669;-48
2022/03/11 03:04:54;;;;;;;3.35;1.02;;;25.60;47.90;;;;;;5007918;28;20224;-47
2022/03/11 03:07:31;;;;;;;4.88;1.15;;;25.60;48.10;;;;;;5007792;28;20189;-48
2022/03/11 03:10:04;;;;;;;3.47;0.90;;;25.60;48.20;;;;;;5007915;28;20607;-47
2022/03/11 03:12:35;;;;;;;2.92;1.33;;;25.60;48.40;;;;;;5008261;28;20209;-50
2022/03/11 03:15:05;;;;;;;3.53;1.27;;;25.60;48.50;;;;;;5008199;28;20225;-47
2022/03/11 03:17:36;;;;;;;3.97;1.23;;;25.60;48.60;;;;;;5007731;28;20648;-46
2022/03/11 03:20:09;;;;;;;3.70;1.40;;;25.60;48.70;;;;;;5008315;28;20205;-47
2022/03/11 03:22:40;;;;;;;1.50;0.93;;;25.60;48.90;;;;;;5007979;28;20199;-46
2022/03/11 03:25:12;;;;;;;2.13;1.20;;;25.60;49.00;;;;;;5008144;28;20233;-47
2022/03/11 03:27:43;;;;;;;2.72;1.20;;;25.60;49.10;;;;;;5008579;28;20248;-47
2022/03/11 03:30:14;;;;;;;3.83;1.17;;;25.70;49.20;;;;;;5008923;28;20193;-47
2022/03/11 03:32:45;;;;;;;2.97;1.10;;;25.70;49.30;;;;;;5007310;28;20201;-47
2022/03/11 03:35:16;;;;;;;3.80;1.15;;;25.70;49.30;;;;;;5007312;28;20217;-47
2022/03/11 03:37:47;;;;;;;1.52;1.10;;;25.70;49.30;;;;;;5009473;28;20201;-47
2022/03/11 03:40:19;;;;;;;2.22;1.20;;;25.70;49.30;;;;;;5009396;28;20200;-47
2022/03/11 03:42:50;;;;;;;2.67;1.00;;;25.70;49.40;;;;;;5001604;28;20189;-48
2022/03/11 03:45:20;;;;;;;2.22;0.98;;;25.70;49.40;;;;;;5007824;28;20279;-46
2022/03/11 03:47:51;;;;;;;1.88;0.90;;;25.70;49.40;;;;;;5008008;28;20255;-47
2022/03/11 03:50:22;;;;;;;2.60;1.00;;;25.70;49.50;;;;;;5007900;28;20193;-50
2022/03/11 03:52:52;;;;;;;1.33;0.85;;;25.70;49.50;;;;;;5008462;28;20197;-48
2022/03/11 03:55:25;;;;;;;1.10;0.95;;;25.80;49.70;;;;;;5007816;28;20216;-46
2022/03/11 03:57:55;;;;;;;2.88;1.23;;;25.80;49.80;;;;;;5008267;28;20197;-47
2022/03/11 04:00:26;;;;;;;2.10;0.95;;;25.80;49.80;;;;;;5008177;28;20205;-47
2022/03/11 04:02:56;;;;;;;1.02;0.77;;;25.80;49.90;;;;;;5008512;28;20271;-47
2022/03/11 04:05:27;;;;;;;1.65;1.00;;;25.80;49.90;;;;;;5010867;28;20232;-49
2022/03/11 04:07:58;;;;;;;2.47;1.27;;;25.80;50.00;;;;;;5011771;28;20197;-48
2022/03/11 04:10:30;;;;;;;2.40;1.10;;;25.80;50.00;;;;;;5011389;28;20251;-47
2022/03/11 04:13:01;;;;;;;1.65;1.10;;;25.80;50.10;;;;;;5010805;28;20200;-48
2022/03/11 04:15:32;;;;;;;1.40;0.90;;;25.80;50.20;;;;;;5010764;28;20213;-46
2022/03/11 04:18:03;;;;;;;2.53;1.15;;;25.80;50.40;;;;;;5011110;28;20208;-48
2022/03/11 04:20:34;;;;;;;1.58;0.82;;;25.80;50.40;;;;;;5011858;28;20254;-47
2022/03/11 04:23:04;;;;;;;2.22;0.90;;;25.80;50.40;;;;;;5010361;28;20324;-48
2022/03/11 04:25:37;;;;;;;3.17;1.08;;;25.80;50.30;;;;;;5011049;28;20221;-47
2022/03/11 04:28:08;;;;;;;0.88;0.80;;;25.80;50.30;;;;;;5010429;28;20189;-48
2022/03/11 04:30:38;;;;;;;2.97;1.17;;;25.80;50.30;;;;;;5010876;28;20193;-47
2022/03/11 04:33:09;;;;;;;1.73;1.00;;;25.80;50.20;;;;;;5010541;28;20197;-47
2022/03/11 04:35:39;;;;;;;1.50;1.00;;;25.80;50.20;;;;;;5010737;28;20248;-47
2022/03/11 04:38:10;;;;;;;2.00;0.95;;;25.80;50.20;;;;;;5010434;28;20196;-47
2022/03/11 04:40:43;;;;;;;1.52;1.00;;;25.80;50.20;;;;;;5010973;28;20216;-47
2022/03/11 04:43:13;;;;;;;2.33;1.17;;;25.80;50.20;;;;;;5011425;28;20204;-47
2022/03/11 04:45:44;;;;;;;1.70;1.10;;;25.80;50.20;;;;;;5009919;28;20224;-48
2022/03/11 04:48:15;;;;;;;2.25;1.10;;;25.80;50.20;;;;;;5010654;28;20204;-47
2022/03/11 04:50:45;;;;;;;1.98;1.05;;;25.80;50.20;;;;;;5010951;28;20197;-47
2022/03/11 04:53:16;;;;;;;3.22;1.27;;;25.80;50.30;;;;;;5010179;28;20255;-48
2022/03/11 04:55:48;;;;;;;1.08;0.88;;;25.80;50.40;;;;;;5010717;28;20247;-47
2022/03/11 04:58:19;;;;;;;2.45;1.25;;;25.80;50.60;;;;;;5010063;28;20192;-47
2022/03/11 05:00:49;;;;;;;1.13;0.80;;;25.80;50.60;;;;;;5010360;28;20197;-47
2022/03/11 05:03:20;;;;;;;1.42;1.00;;;25.80;50.70;;;;;;5010194;28;20771;-47
2022/03/11 05:05:51;;;;;;;1.27;0.70;;;25.80;50.70;;;;;;5010406;28;20287;-48
2022/03/11 05:08:21;;;;;;;1.55;0.93;;;25.80;51.20;;;;;;5010778;28;20208;-47
2022/03/11 05:10:54;;;;;;;1.33;0.88;;;25.80;50.50;;;;;;5009842;28;20247;-48
2022/03/11 05:13:24;;;;;;;2.67;1.10;;;25.80;50.60;;;;;;5010438;28;20224;-48
2022/03/11 05:15:55;;;;;;;1.05;0.90;;;25.80;50.70;;;;;;5009039;28;20201;-47
2022/03/11 05:18:25;;;;;;;1.52;0.85;;;25.80;50.40;;;;;;5009890;28;20596;-47
2022/03/11 05:20:56;;;;;;;1.73;0.90;;;25.70;50.30;;;;;;5009406;28;20663;-48
2022/03/11 05:23:27;;;;;;;1.35;0.80;;;25.80;50.20;;;;;;5009482;28;20251;-46
2022/03/11 05:25:59;;;;;;;0.73;0.73;;;25.80;50.20;;;;;;5009360;28;20259;-51
2022/03/11 05:28:30;;;;;;;2.05;1.00;;;25.70;50.20;;;;;;5010610;28;20209;-47
2022/03/11 05:31:00;;;;;;;1.45;0.80;;;25.70;50.10;;;;;;5009907;28;20197;-46
2022/03/11 05:33:31;;;;;;;1.55;0.90;;;25.70;50.00;;;;;;5009436;28;20279;-47
2022/03/11 05:36:01;;;;;;;2.22;0.88;;;25.70;50.00;;;;;;5009972;28;20202;-48
2022/03/11 05:38:32;;;;;;;1.17;0.88;;;25.70;49.90;;;;;;5010256;28;20267;-47
2022/03/11 05:41:04;;;;;;;2.67;1.20;;;25.70;49.90;;;;;;5009896;28;20204;-48
2022/03/11 05:43:36;;;;;;;2.00;0.93;;;25.70;49.90;;;;;;5009797;28;20220;-47
2022/03/11 05:46:07;;;;;;;1.65;0.80;;;25.70;50.00;;;;;;5009693;28;20702;-46
2022/03/11 05:48:38;;;;;;;2.50;0.93;;;25.70;50.00;;;;;;5009777;28;20719;-47
2022/03/11 05:51:08;;;;;;;0.75;0.70;;;25.70;50.20;;;;;;5009143;28;20597;-47
2022/03/11 05:53:39;;;;;;;1.20;0.88;;;25.70;50.20;;;;;;5009203;28;20259;-47
2022/03/11 05:56:11;;;;;;;0.75;0.70;;;25.70;50.30;;;;;;5009255;28;20193;-47
2022/03/11 05:58:42;;;;;;;0.70;0.70;;;25.70;50.40;;;;;;5008602;28;20248;-47
2022/03/11 06:01:13;;;;;;;0.95;0.80;;;25.70;50.50;;;;;;5008664;28;20189;-47
2022/03/11 06:03:45;;;;;;;1.75;0.80;;;25.60;50.40;;;;;;5009241;28;20208;-47
2022/03/11 06:06:16;;;;;;;1.15;0.60;;;25.60;50.50;;;;;;5009664;28;20729;-47
2022/03/11 06:08:47;;;;;;;1.10;0.70;;;25.60;50.50;;;;;;5014224;23;20283;-55
2022/03/11 06:11:19;;;;;;;2.13;1.00;;;25.60;50.20;;;;;;4989469;28;20295;-54
2022/03/11 06:13:50;;;;;;;1.50;0.95;;;25.60;50.10;;;;;;4990031;28;20213;-56
2022/03/11 06:16:21;;;;;;;2.35;0.98;;;25.60;50.10;;;;;;4989254;28;20216;-56
2022/03/11 06:18:51;;;;;;;0.90;0.70;;;25.60;50.00;;;;;;4989707;28;20201;-55
2022/03/11 06:21:22;;;;;;;1.73;0.93;;;25.60;50.10;;;;;;4989816;28;20205;-55
2022/03/11 06:23:53;;;;;;;0.60;0.60;;;25.60;50.10;;;;;;5002119;28;20275;-53
2022/03/11 06:26:25;;;;;;;2.40;0.90;;;25.60;50.10;;;;;;5009602;28;20225;-55
2022/03/11 06:28:56;;;;;;;1.27;1.00;;;25.60;50.20;;;;;;4990481;28;20197;-55
2022/03/11 06:31:27;;;;;;;1.00;0.80;;;25.60;50.20;;;;;;4988948;28;20229;-55
2022/03/11 06:33:59;;;;;;;2.30;1.00;;;25.60;50.20;;;;;;4989180;28;20752;-55
2022/03/11 06:36:30;;;;;;;1.98;0.80;;;25.60;50.20;;;;;;4989325;28;20198;-54
2022/03/11 06:39:00;;;;;;;1.10;0.85;;;25.60;50.30;;;;;;4988479;28;20215;-55
2022/03/11 06:41:33;;;;;;;2.80;0.90;;;25.60;50.30;;;;;;4989464;28;20201;-55
2022/03/11 06:44:03;;;;;;;3.50;0.85;;;25.60;50.40;;;;;;4989394;28;20304;-56
2022/03/11 06:46:34;;;;;;;1.90;0.90;;;25.60;50.40;;;;;;4990117;28;20229;-56
2022/03/11 06:49:05;;;;;;;1.73;0.77;;;25.50;50.30;;;;;;4990546;28;20620;-55
2022/03/11 06:51:36;;;;;;;1.05;0.73;;;25.50;50.20;;;;;;4990622;28;20212;-54
2022/03/11 06:54:07;;;;;;;2.72;0.90;;;25.50;50.40;;;;;;4990444;28;20592;-55
2022/03/11 06:56:40;;;;;;;2.92;0.95;;;25.50;50.30;;;;;;4990799;28;20240;-53
2022/03/11 06:59:11;;;;;;;2.47;0.88;;;25.50;50.30;;;;;;4990204;28;20193;-55
2022/03/11 07:01:44;;;;;;;2.72;0.90;;;25.50;50.40;;;;;;4990112;28;20201;-55
2022/03/11 07:04:14;;;;;;;3.40;1.17;;;25.50;50.40;;;;;;4990463;28;20222;-55
2022/03/11 07:06:45;;;;;;;1.85;0.90;;;25.50;50.40;;;;;;4990463;28;20221;-55
2022/03/11 07:09:16;;;;;;;3.50;0.93;;;25.50;50.20;;;;;;4990293;28;20209;-56
2022/03/11 07:11:51;;;;;;;2.30;1.00;;;25.50;50.20;;;;;;4990407;28;20206;-54
2022/03/11 07:14:21;;;;;;;2.75;1.00;;;25.50;50.10;;;;;;4990390;28;20221;-55
2022/03/11 07:16:53;;;;;;;2.08;0.95;;;25.50;50.10;;;;;;4990268;28;20201;-56
2022/03/11 07:19:23;;;;;;;2.92;1.13;;;25.50;50.10;;;;;;4990094;28;20562;-55
2022/03/11 07:21:54;;;;;;;2.53;1.00;;;25.50;50.10;;;;;;4990103;28;20251;-55
2022/03/11 07:24:25;;;;;;;3.67;1.08;;;25.50;50.10;;;;;;4989758;28;20228;-56
2022/03/11 07:26:57;;;;;;;3.25;1.00;;;25.40;50.00;;;;;;4990138;28;20236;-56
2022/03/11 07:29:28;;;;;;;2.70;1.00;;;25.50;50.10;;;;;;4990291;28;20194;-55
2022/03/11 07:31:59;;;;;;;1.83;0.90;;;25.50;50.20;;;;;;4990095;28;20197;-57
2022/03/11 07:34:29;;;;;;;2.58;1.02;;;25.50;50.30;;;;;;4990387;28;20228;-55
2022/03/11 07:37:00;;;;;;;2.03;1.00;;;25.40;50.30;;;;;;4990698;28;20206;-56
2022/03/11 07:39:30;;;;;;;1.67;0.90;;;25.40;50.40;;;;;;4993684;28;20205;-57
2022/03/11 07:42:03;;;;;;;1.58;0.90;;;25.40;50.50;;;;;;4991637;28;20987;-54
2022/03/11 07:44:34;;;;;;;3.03;1.17;;;25.40;51.00;;;;;;4991612;28;20263;-55
2022/03/11 07:47:05;;;;;;;1.02;0.93;;;25.40;50.50;;;;;;4991609;28;20335;-56
2022/03/11 07:49:35;;;;;;;1.42;1.00;;;25.40;50.50;;;;;;4992624;28;20709;-56
2022/03/11 07:52:07;;;;;;;0.95;0.70;;;25.40;50.50;;;;;;4992378;28;20276;-57
2022/03/11 07:54:37;;;;;;;2.35;1.00;;;25.30;50.50;;;;;;4991797;28;20300;-56
2022/03/11 07:57:10;;;;;;;3.85;1.20;;;25.40;50.40;;;;;;4991873;28;20201;-56
2022/03/11 07:59:43;;;;;;;2.20;1.20;;;25.40;50.50;;;;;;4992480;28;20228;-58
2022/03/11 08:02:14;;;;;;;2.97;1.17;;;25.30;50.40;;;;;;4992116;28;20220;-56
2022/03/11 08:04:45;;;;;;;5.10;1.05;;;25.30;50.30;;;;;;4992064;28;20255;-55
2022/03/11 08:07:16;;;;;;;3.55;1.10;;;25.30;50.90;;;;;;4992277;28;20225;-55
2022/03/11 08:09:46;;;;;;;2.92;1.17;;;25.30;50.30;;;;;;4991337;28;20209;-57
2022/03/11 08:14:59;;;;;;;2.15;0.90;;;25.30;50.30;;;;;;5175073;23;20237;-47
2022/03/11 08:17:33;;;;;;;3.78;1.13;;;25.30;50.30;;;;;;4990260;28;20592;-47
2022/03/11 08:20:07;;;;;;;2.97;1.20;;;25.30;50.30;;;;;;4986889;28;20802;-47
2022/03/11 08:22:41;;;;;;;2.67;1.10;;;25.30;50.30;;;;;;4990315;28;20592;-48
2022/03/11 08:25:17;;;;;;;2.55;1.20;;;25.30;50.30;;;;;;4987864;28;20676;-47
2022/03/11 08:27:52;;;;;;;2.85;1.00;;;25.30;50.50;;;;;;4989429;28;20217;-47
2022/03/11 08:30:31;;;;;;;1.50;1.02;;;25.30;50.40;;;;;;4990764;28;20213;-48
2022/03/11 08:33:06;;;;;;;1.83;1.10;;;25.30;50.50;;;;;;4989408;28;20209;-46
2022/03/11 08:35:41;;;;;;;2.67;1.25;;;25.30;50.50;;;;;;4990090;28;20552;-47
2022/03/11 08:38:15;;;;;;;1.15;0.80;;;25.30;50.50;;;;;;4989444;28;20560;-47
2022/03/11 08:40:50;;;;;;;1.70;0.88;;;25.20;50.40;;;;;;4990144;28;20516;-47
2022/03/11 08:43:25;;;;;;;2.13;1.05;;;25.20;50.50;;;;;;4989394;28;20491;-48
2022/03/11 08:46:02;;;;;;;2.40;0.98;;;25.20;50.60;;;;;;4989415;28;20647;-46
2022/03/11 08:48:36;;;;;;;2.03;1.00;;;25.20;50.60;;;;;;4989357;28;20540;-47
2022/03/11 08:51:10;;;;;;;2.25;1.20;;;25.20;50.50;;;;;;4989344;28;20600;-48
2022/03/11 08:53:44;;;;;;;3.63;1.55;;;25.20;50.50;;;;;;4989146;28;20652;-48
2022/03/11 08:56:21;;;;;;;2.88;1.02;;;25.10;50.50;;;;;;4989060;28;20301;-47
2022/03/11 08:58:56;;;;;;;2.97;1.23;;;25.20;50.50;;;;;;4989851;28;20201;-47
2022/03/11 09:01:39;;;;;;;2.80;1.33;;;25.20;50.50;;;;;;4989596;28;20611;-47
2022/03/11 09:04:15;;;;;;;4.70;1.92;;;25.10;50.50;;;;;;4988443;28;20546;-51
2022/03/11 09:06:50;;;;;;;5.10;1.67;;;25.10;50.50;;;;;;4989569;28;20684;-47
2022/03/11 09:09:23;;;;;;;5.03;1.63;;;25.10;50.50;;;;;;4989402;28;20621;-47
2022/03/11 09:11:55;;;;;;;4.63;1.45;;;25.10;50.50;;;;;;5013738;23;20245;-56
2022/03/11 09:14:26;;;;;;;3.28;1.45;;;25.10;50.50;;;;;;4980285;28;20227;-54
2022/03/11 09:16:59;;;;;;;5.78;2.28;;;25.10;50.50;;;;;;4989925;28;20223;-53
2022/03/11 09:19:30;;;;;;;4.63;1.58;;;25.10;50.60;;;;;;4989894;28;20679;-52
2022/03/11 09:22:01;;;;;;;3.72;1.63;;;25.10;50.60;;;;;;4988834;28;20228;-54
2022/03/11 09:24:33;;;;;;;4.55;1.73;;;25.10;50.60;;;;;;4989499;28;20231;-55
2022/03/11 09:27:04;;;;;;;3.92;1.38;;;25.10;50.60;;;;;;4989110;28;20229;-56
2022/03/11 09:29:35;;;;;;;4.28;1.80;;;25.10;50.70;;;;;;4990226;28;20321;-55
2022/03/11 09:32:10;;;;;;;4.22;1.60;;;25.10;50.70;;;;;;4987962;28;20553;-51
2022/03/11 09:34:41;;;;;;;4.38;1.95;;;25.10;50.70;;;;;;4990755;28;20608;-55
2022/03/11 09:37:12;;;;;;;5.00;1.83;;;25.00;50.70;;;;;;4990394;28;20510;-56
2022/03/11 09:39:43;;;;;;;5.28;1.90;;;25.10;50.80;;;;;;4990011;28;20590;-51
2022/03/11 09:42:15;;;;;;;4.97;2.00;;;25.10;50.90;;;;;;4990091;28;20193;-55
2022/03/11 09:44:55;;;;;;;5.35;2.15;;;25.00;50.80;;;;;;4989694;28;20311;-55
2022/03/11 09:47:28;;;;;;;4.40;2.10;;;25.00;50.80;;;;;;4989764;28;20668;-54
2022/03/11 09:50:00;;;;;;;4.85;1.95;;;25.00;50.80;;;;;;4988923;28;20189;-51
2022/03/11 09:52:34;;;;;;;5.00;2.10;;;25.00;50.80;;;;;;4990287;28;20584;-53
2022/03/11 09:55:07;;;;;;;3.70;2.05;;;25.00;50.80;;;;;;4989195;28;20808;-51
2022/03/11 09:57:38;;;;;;;9.10;2.50;;;25.00;50.80;;;;;;4990075;28;20568;-56
2022/03/11 10:00:11;;;;;;;8.52;2.58;;;25.00;50.90;;;;;;4988563;28;20540;-55
2022/03/11 10:02:46;;;;;;;5.13;2.33;;;25.00;50.90;;;;;;4989152;28;20657;-55
2022/03/11 10:05:18;;;;;;;6.72;2.63;;;25.00;50.80;;;;;;4990053;28;20382;-56
2022/03/11 10:08:03;;;;;;;5.13;2.58;;;25.00;50.90;;;;;;4988603;28;20567;-52
2022/03/11 10:10:35;;;;;;;4.13;1.98;;;25.00;50.90;;;;;;4989454;28;20185;-54
2022/03/11 10:13:07;;;;;;;5.93;2.63;;;24.90;50.90;;;;;;4989869;28;20312;-55
2022/03/11 10:15:39;;;;;;;6.65;2.60;;;24.90;50.90;;;;;;4989001;28;20543;-52
2022/03/11 10:18:13;;;;;;;5.88;2.33;;;24.90;51.00;;;;;;4988425;28;20208;-53
2022/03/11 10:20:44;;;;;;;5.80;2.10;;;24.90;51.00;;;;;;4989885;28;20550;-56
2022/03/11 10:23:17;;;;;;;5.55;2.55;;;24.90;51.00;;;;;;4989098;28;20545;-49
2022/03/11 10:25:55;;;;;;;4.75;2.20;;;24.90;51.00;;;;;;4989197;28;20189;-50
2022/03/11 10:28:30;;;;;;;5.30;2.40;;;24.90;51.10;;;;;;4991569;28;20260;-56
2022/03/11 10:31:12;;;;;;;6.40;2.35;;;24.90;51.10;;;;;;4992419;28;20255;-52
2022/03/11 10:33:45;;;;;;;5.30;2.28;;;24.90;51.10;;;;;;4992292;28;20253;-50
2022/03/11 10:36:17;;;;;;;7.40;2.50;;;24.90;51.10;;;;;;4991856;28;20197;-53
2022/03/11 10:38:48;;;;;;;7.68;2.95;;;24.90;51.10;;;;;;4992558;28;20652;-52
2022/03/11 10:41:19;;;;;;;5.57;2.58;;;24.80;51.00;;;;;;4992634;28;20687;-49
2022/03/11 10:43:53;;;;;;;5.70;2.50;;;24.90;51.00;;;;;;4992038;28;20594;-49
2022/03/11 10:46:28;;;;;;;7.25;2.90;;;24.80;51.00;;;;;;4991597;28;20543;-51
2022/03/11 10:49:03;;;;;;;6.63;2.83;;;24.80;51.00;;;;;;4992275;28;20541;-54
2022/03/11 10:51:38;;;;;;;7.90;2.90;;;24.80;51.00;;;;;;4992180;28;20543;-53
2022/03/11 10:54:10;;;;;;;6.40;2.95;;;24.80;51.00;;;;;;4991463;28;20637;-50
2022/03/11 10:56:43;;;;;;;9.13;2.67;;;24.80;51.00;;;;;;4992481;28;20204;-50
2022/03/11 10:59:26;;;;;;;7.97;3.28;;;24.80;51.00;;;;;;4991260;28;20201;-53
2022/03/11 11:01:59;;;;;;;9.43;2.80;;;24.80;51.10;;;;;;4990713;28;20562;-53
2022/03/11 11:04:32;;;;;;;6.25;2.83;;;24.80;51.10;;;;;;4991904;28;20612;-55
2022/03/11 11:07:04;;;;;;;6.57;3.05;;;24.80;51.10;;;;;;4992284;28;20675;-56
2022/03/11 11:09:36;;;;;;;5.35;2.65;;;24.80;51.10;;;;;;4991931;28;20582;-53
2022/03/11 11:12:09;;;;;;;7.82;3.20;;;24.80;51.20;;;;;;4992466;28;20732;-55
2022/03/11 11:14:40;;;;;;;7.63;3.22;;;24.80;51.20;;;;;;4995643;28;20571;-56
2022/03/11 11:17:13;;;;;;;5.75;2.80;;;24.80;51.20;;;;;;4995557;28;20689;-56
2022/03/11 11:19:48;;;;;;;6.00;2.80;;;24.70;51.20;;;;;;4995688;28;20590;-56
2022/03/11 11:22:19;;;;;;;7.15;3.08;;;24.70;51.20;;;;;;4995245;28;20555;-56
2022/03/11 11:24:53;;;;;;;6.35;2.67;;;24.70;51.30;;;;;;4995535;28;20217;-54
2022/03/11 11:27:26;;;;;;;6.22;2.50;;;24.70;51.30;;;;;;4995482;28;20560;-53
2022/03/11 11:29:57;;;;;;;6.28;3.10;;;24.70;51.30;;;;;;4995381;28;20201;-51
2022/03/11 11:32:28;;;;;;;7.40;3.42;;;24.70;51.30;;;;;;4995990;28;20194;-56
2022/03/11 11:35:29;;;;;;;5.75;2.70;;;24.70;51.20;;;;;;4995559;28;20553;-54
2022/03/11 11:38:01;;;;;;;7.60;3.40;;;24.70;51.30;;;;;;4995385;28;20197;-54
2022/03/11 11:40:34;;;;;;;5.40;2.63;;;24.70;51.20;;;;;;4992429;28;20286;-54
2022/03/11 11:43:30;;;;;;;6.13;3.22;;;24.70;51.30;;;;;;4995406;28;20189;-55
2022/03/11 11:46:09;;;;;;;7.15;3.15;;;24.70;51.30;;;;;;4995119;28;20200;-55
2022/03/11 11:48:58;;;;;;;5.50;3.03;;;24.60;51.80;;;;;;4994113;28;20243;-54
2022/03/11 11:52:08;;;;;;;6.82;2.70;;;24.70;51.30;;;;;;4994318;28;20544;-54
2022/03/11 11:54:47;;;;;;;4.85;2.58;;;24.60;51.30;;;;;;4994590;28;20571;-56
2022/03/11 11:57:27;;;;;;;6.03;3.38;;;24.60;51.20;;;;;;4990947;28;20291;-57
2022/03/11 11:59:59;;;;;;;6.28;3.00;;;24.70;51.30;;;;;;4995218;28;20559;-56
2022/03/11 12:02:38;;;;;;;6.57;2.95;;;24.60;51.30;;;;;;4994792;28;20267;-53
2022/03/11 12:05:45;;;;;;;5.75;2.90;;;24.60;51.40;;;;;;4994670;28;20707;-53
2022/03/11 12:08:53;;;;;;;6.72;3.08;;;24.60;51.40;;;;;;4994419;28;20573;-54
2022/03/11 12:11:44;;;;;;;6.50;2.97;;;24.60;51.40;;;;;;4995025;28;20220;-58
2022/03/11 12:14:16;;;;;;;6.78;2.88;;;24.60;51.40;;;;;;4995217;28;20615;-56
2022/03/11 12:17:08;;;;;;;6.15;2.85;;;24.60;51.40;;;;;;4994666;28;20524;-55
2022/03/11 12:19:49;;;;;;;7.47;2.88;;;24.50;51.50;;;;;;4994495;28;20554;-57
2022/03/11 12:22:36;;;;;;;6.30;2.92;;;24.60;51.50;;;;;;4994200;28;20521;-56
2022/03/11 12:25:16;;;;;;;5.90;2.95;;;24.60;51.50;;;;;;4993256;28;20650;-59
2022/03/11 12:28:21;;;;;;;6.40;3.03;;;24.50;51.50;;;;;;4993722;28;20665;-58
2022/03/11 12:31:00;;;;;;;7.32;2.95;;;24.50;51.50;;;;;;4993983;28;20207;-55
2022/03/11 12:33:37;;;;;;;5.97;2.58;;;24.50;51.40;;;;;;4994229;28;20193;-56
2022/03/11 12:36:12;;;;;;;4.85;2.20;;;24.50;51.50;;;;;;4994585;28;20216;-55
2022/03/11 12:38:44;;;;;;;4.30;2.25;;;24.50;51.50;;;;;;4994173;28;20193;-54
2022/03/11 12:41:19;;;;;;;5.88;2.88;;;24.50;51.50;;;;;;4993823;28;20216;-54
2022/03/11 12:43:50;;;;;;;5.40;2.72;;;24.50;51.50;;;;;;4994283;28;20217;-55
2022/03/11 12:46:21;;;;;;;7.13;3.20;;;24.50;51.50;;;;;;4994499;28;20197;-53
2022/03/11 12:48:53;;;;;;;5.57;2.30;;;24.50;51.60;;;;;;4993804;28;20239;-55
2022/03/11 12:51:26;;;;;;;4.75;2.40;;;24.50;51.60;;;;;;4994369;28;20235;-54
2022/03/11 12:53:57;;;;;;;3.85;2.58;;;24.50;51.50;;;;;;4994099;28;20580;-55
2022/03/11 12:56:31;;;;;;;5.80;2.50;;;24.50;51.60;;;;;;4993626;28;20543;-55
2022/03/11 12:59:06;;;;;;;4.28;2.38;;;24.50;51.60;;;;;;4993781;28;20200;-55
2022/03/11 13:01:39;;;;;;;5.63;2.25;;;24.50;51.70;;;;;;4993129;28;20197;-54
2022/03/11 13:04:10;;;;;;;4.93;2.30;;;24.50;51.70;;;;;;4992769;28;20221;-56
2022/03/11 13:06:40;;;;;;;3.25;2.00;;;24.50;51.70;;;;;;4993313;28;20276;-56
2022/03/11 13:09:11;;;;;;;4.30;2.13;;;24.50;51.60;;;;;;4992979;28;20222;-55
2022/03/11 13:11:43;;;;;;;3.42;1.77;;;24.50;51.70;;;;;;4993727;28;20657;-52
2022/03/11 13:14:14;;;;;;;3.33;2.00;;;24.50;51.70;;;;;;4993401;28;20700;-55
2022/03/11 13:16:44;;;;;;;3.38;2.00;;;24.50;51.70;;;;;;4993101;28;20728;-56
2022/03/11 13:19:17;;;;;;;4.80;2.05;;;24.50;51.70;;;;;;4992968;28;20264;-56
2022/03/11 13:21:48;;;;;;;3.83;1.80;;;24.40;51.60;;;;;;4992938;28;20602;-54
2022/03/11 13:24:20;;;;;;;3.55;1.73;;;24.50;51.70;;;;;;4992981;28;20222;-56
2022/03/11 13:27:06;;;;;;;3.08;1.77;;;24.50;51.70;;;;;;4993245;28;20248;-52
2022/03/11 13:29:45;;;;;;;2.75;1.50;;;24.50;51.70;;;;;;4993101;28;20279;-53